Chhatrapati Shivaji International Airport

VABB | BOM

Mumbai , Maharashtra , India

Sunday, June 7th, 2020 | 11:50

Weather

VABB 070600Z 19010KT 4000 HZ FEW020 SCT025 32/26 Q1006 NOSIG

Charts

No Charts Available

Gates

170 Available

Runways

2 Available

Active ATC

Events -Coming Soon-

1 Events Coming Up Soon

Next event:
VABB Flyout